createdAt,value
2017-09-27T00:01:12.250Z,96.70
2017-09-27T00:03:39.863Z,97.80
2017-09-27T00:06:07.509Z,97.00
2017-09-27T00:08:35.175Z,97.90
2017-09-27T00:11:02.794Z,97.90
2017-09-27T00:13:30.437Z,98.40
2017-09-27T00:15:58.054Z,98.80
2017-09-27T00:18:25.670Z,98.90
2017-09-27T00:20:53.318Z,97.40
2017-09-27T00:23:20.934Z,96.40
2017-09-27T00:25:48.553Z,97.50
2017-09-27T00:28:16.965Z,97.80
2017-09-27T00:30:44.581Z,97.80
2017-09-27T00:33:12.197Z,98.10
2017-09-27T00:35:39.850Z,98.00
2017-09-27T00:38:08.233Z,96.30
2017-09-27T00:40:35.853Z,96.30
2017-09-27T00:43:03.838Z,96.40
2017-09-27T00:45:31.466Z,96.70
2017-09-27T00:47:59.845Z,97.70
2017-09-27T00:50:27.494Z,97.70
2017-09-27T00:52:55.117Z,97.80
2017-09-27T00:55:23.498Z,99.90
2017-09-27T00:57:51.146Z,99.90
2017-09-27T01:00:18.775Z,99.90
2017-09-27T01:02:46.453Z,99.90
2017-09-27T01:05:14.117Z,99.90
2017-09-27T01:07:41.729Z,99.90
2017-09-27T01:10:10.109Z,99.90
2017-09-27T01:12:37.757Z,99.90
2017-09-27T01:15:05.376Z,99.90
2017-09-27T01:17:33.762Z,99.90
2017-09-27T01:20:01.417Z,99.90
2017-09-27T01:22:29.035Z,99.90
2017-09-27T01:24:57.423Z,99.90
2017-09-27T01:27:25.079Z,99.90
2017-09-27T01:29:52.698Z,99.90
2017-09-27T01:32:20.318Z,99.90
2017-09-27T01:34:47.978Z,99.90
2017-09-27T01:37:16.362Z,99.90
2017-09-27T01:39:43.980Z,99.90
2017-09-27T01:42:12.398Z,99.90
2017-09-27T01:44:40.017Z,99.90
2017-09-27T01:47:07.637Z,99.90
2017-09-27T01:49:35.281Z,99.90
2017-09-27T01:52:02.898Z,99.90
2017-09-27T01:54:30.517Z,99.90
2017-09-27T01:56:58.165Z,99.90
2017-09-27T01:59:25.789Z,99.90
2017-09-27T02:01:53.410Z,99.90
2017-09-27T02:04:21.829Z,99.90
2017-09-27T02:06:49.462Z,99.90
2017-09-27T02:09:17.087Z,99.90
2017-09-27T02:11:45.502Z,99.90
2017-09-27T02:14:13.124Z,99.90
2017-09-27T02:16:40.741Z,99.90
2017-09-27T02:19:09.155Z,99.90
2017-09-27T02:21:36.773Z,99.90
2017-09-27T02:24:04.393Z,99.90
2017-09-27T02:26:32.810Z,99.90
2017-09-27T02:29:00.434Z,99.90
2017-09-27T02:31:28.058Z,99.90
2017-09-27T02:33:55.717Z,99.90
2017-09-27T02:36:23.334Z,99.90
2017-09-27T02:38:51.721Z,99.90
2017-09-27T02:41:19.373Z,99.90
2017-09-27T02:43:46.985Z,99.90
2017-09-27T02:46:14.601Z,99.90
2017-09-27T02:48:42.255Z,99.90
2017-09-27T02:51:09.878Z,99.90
2017-09-27T02:53:37.506Z,99.90
2017-09-27T02:56:05.164Z,99.90
2017-09-27T02:58:32.784Z,99.90
2017-09-27T03:01:00.396Z,99.90
2017-09-27T03:03:28.053Z,99.90
2017-09-27T03:05:56.443Z,99.90
2017-09-27T03:08:24.114Z,99.90
2017-09-27T03:10:51.764Z,99.90
2017-09-27T03:13:19.385Z,99.90
2017-09-27T03:15:46.999Z,99.90
2017-09-27T03:18:14.650Z,99.90
2017-09-27T03:20:42.274Z,99.90
2017-09-27T03:23:09.897Z,99.90
2017-09-27T03:25:37.561Z,99.90
2017-09-27T03:28:05.181Z,99.90
2017-09-27T03:30:32.794Z,99.90
2017-09-27T03:33:01.201Z,99.90
2017-09-27T03:35:28.821Z,99.90
2017-09-27T03:37:56.434Z,99.90
2017-09-27T03:40:24.085Z,99.90
2017-09-27T03:42:51.701Z,99.90
2017-09-27T03:45:19.322Z,99.90
2017-09-27T03:47:46.967Z,99.90
2017-09-27T03:50:14.583Z,99.90
2017-09-27T03:52:42.198Z,99.90
2017-09-27T03:55:09.848Z,99.90
2017-09-27T03:57:37.468Z,99.90
2017-09-27T04:00:05.093Z,99.90
2017-09-27T04:02:32.746Z,99.90
2017-09-27T04:05:00.371Z,99.90
2017-09-27T04:07:27.989Z,99.90
2017-09-27T04:09:55.639Z,99.90
2017-09-27T04:12:23.250Z,99.90
2017-09-27T04:14:50.870Z,99.90
2017-09-27T04:17:18.575Z,99.90
2017-09-27T04:19:46.190Z,99.90
2017-09-27T04:22:13.810Z,99.90
2017-09-27T04:24:41.453Z,99.90
2017-09-27T04:27:09.069Z,99.90
2017-09-27T04:29:36.677Z,99.90
2017-09-27T04:32:04.330Z,99.90
2017-09-27T04:34:31.954Z,99.90
2017-09-27T04:36:59.596Z,99.90
2017-09-27T04:39:27.255Z,99.90
2017-09-27T04:41:54.869Z,99.90
2017-09-27T04:44:22.489Z,99.90
2017-09-27T04:46:50.137Z,99.90
2017-09-27T04:49:18.543Z,99.90
2017-09-27T04:51:46.190Z,99.90
2017-09-27T04:54:14.647Z,99.90
2017-09-27T04:56:42.269Z,99.90
2017-09-27T04:59:10.676Z,99.90
2017-09-27T05:01:38.333Z,99.90
2017-09-27T05:04:05.959Z,99.90
2017-09-27T05:06:33.598Z,99.90
2017-09-27T05:09:01.252Z,99.90
2017-09-27T05:11:28.879Z,99.90
2017-09-27T05:13:56.499Z,99.90
2017-09-27T05:16:24.145Z,99.90
2017-09-27T05:18:51.761Z,99.90
2017-09-27T05:21:19.387Z,99.90
2017-09-27T05:23:47.041Z,99.90
2017-09-27T05:26:17.130Z,99.90
2017-09-27T05:28:45.100Z,99.90
2017-09-27T05:31:12.765Z,99.90
2017-09-27T05:33:40.389Z,99.90
2017-09-27T05:36:08.005Z,99.90
2017-09-27T05:38:35.662Z,99.90
2017-09-27T05:41:03.291Z,99.90
2017-09-27T05:43:31.672Z,99.90
2017-09-27T05:45:59.323Z,99.90
2017-09-27T05:48:26.939Z,99.90
2017-09-27T07:12:52.502Z,99.90
2017-09-27T07:15:20.114Z,84.60
2017-09-27T07:17:47.730Z,81.90
2017-09-27T07:20:15.382Z,79.80
2017-09-27T07:22:43.002Z,79.80
2017-09-27T07:25:10.631Z,77.30
2017-09-27T07:27:38.256Z,72.40
2017-09-27T07:30:05.846Z,67.70
2017-09-27T07:32:34.201Z,59.90
2017-09-27T07:35:02.589Z,54.90
2017-09-27T07:37:30.180Z,54.80
2017-09-27T07:39:57.770Z,54.80
2017-09-27T07:42:25.397Z,58.00
2017-09-27T07:44:53.763Z,58.90
2017-09-27T07:47:22.114Z,58.70
2017-09-27T07:49:49.742Z,58.60
2017-09-27T07:52:17.334Z,59.90
2017-09-27T07:54:44.921Z,59.20
2017-09-27T07:57:12.541Z,57.70
2017-09-27T07:59:40.130Z,59.60
2017-09-27T08:02:07.733Z,55.10
2017-09-27T08:04:35.358Z,56.80
2017-09-27T08:07:02.954Z,55.80
2017-09-27T08:09:30.557Z,51.30
2017-09-27T08:11:58.178Z,48.00
2017-09-27T08:14:26.534Z,42.90
2017-09-27T08:16:54.126Z,42.90
2017-09-27T08:19:21.750Z,34.30
2017-09-27T08:21:49.346Z,30.00
2017-09-27T08:24:16.936Z,29.30
2017-09-27T08:26:45.329Z,26.30
2017-09-27T08:29:12.920Z,26.30
2017-09-27T08:31:40.540Z,25.30
2017-09-27T08:34:08.165Z,24.80
2017-09-27T08:36:35.753Z,24.40
2017-09-27T08:39:03.341Z,23.30
2017-09-27T08:41:30.959Z,22.70
2017-09-27T08:43:58.546Z,23.10
2017-09-27T08:46:26.138Z,23.80
2017-09-27T08:48:53.763Z,22.10
2017-09-27T08:51:21.353Z,20.70
2017-09-27T08:53:49.706Z,24.30
2017-09-27T08:56:18.093Z,24.20
2017-09-27T08:58:45.683Z,23.80
2017-09-27T09:01:13.270Z,26.70
2017-09-27T09:03:41.662Z,24.80
2017-09-27T09:06:09.254Z,24.70
2017-09-27T09:08:36.842Z,24.20
2017-09-27T09:11:04.472Z,23.50
2017-09-27T09:13:32.074Z,25.50
2017-09-27T09:15:59.666Z,26.20
2017-09-27T09:18:27.293Z,23.90
2017-09-27T09:20:54.888Z,24.60
2017-09-27T09:23:22.475Z,25.20
2017-09-27T09:25:50.094Z,25.60
2017-09-27T09:28:17.686Z,24.90
2017-09-27T09:30:46.037Z,27.10
2017-09-27T09:33:13.655Z,27.10
2017-09-27T09:35:41.242Z,23.30
2017-09-27T09:38:08.830Z,25.10
2017-09-27T09:40:36.445Z,26.70
2017-09-27T09:43:04.043Z,25.90
2017-09-27T09:45:31.639Z,28.40
2017-09-27T09:47:59.258Z,27.90
2017-09-27T09:50:26.851Z,25.40
2017-09-27T09:52:54.441Z,25.20
2017-09-27T09:55:22.060Z,25.00
2017-09-27T09:57:49.644Z,23.90
2017-09-27T10:00:17.235Z,22.30
2017-09-27T10:02:44.855Z,24.70
2017-09-27T10:05:12.473Z,23.60
2017-09-27T10:07:40.094Z,22.80
2017-09-27T10:10:07.783Z,20.80
2017-09-27T10:12:35.396Z,22.10
2017-09-27T10:15:02.977Z,22.00
2017-09-27T10:17:31.361Z,24.40
2017-09-27T10:19:58.945Z,24.50
2017-09-27T10:22:26.534Z,22.60
2017-09-27T10:24:54.917Z,22.10
2017-09-27T10:27:22.503Z,22.10
2017-09-27T10:29:50.085Z,19.80
2017-09-27T10:32:18.474Z,20.70
2017-09-27T10:34:46.048Z,20.70
2017-09-27T10:37:13.649Z,21.40
2017-09-27T10:39:41.266Z,20.30
2017-09-27T10:42:08.858Z,19.90
2017-09-27T10:44:36.437Z,21.00
2017-09-27T10:47:04.055Z,22.10
2017-09-27T10:49:31.637Z,22.80
2017-09-27T10:51:59.234Z,23.70
2017-09-27T10:54:26.850Z,24.50
2017-09-27T10:56:55.206Z,27.40
2017-09-27T10:59:23.557Z,25.10
2017-09-27T11:01:51.180Z,24.90
2017-09-27T11:04:18.774Z,27.90
2017-09-27T11:06:47.132Z,28.30
2017-09-27T11:09:15.517Z,27.30
2017-09-27T11:11:43.101Z,27.30
2017-09-27T11:14:10.690Z,25.80
2017-09-27T11:16:39.080Z,30.20
2017-09-27T11:19:06.677Z,30.10
2017-09-27T11:21:34.258Z,28.00
2017-09-27T11:24:01.883Z,29.40
2017-09-27T11:26:30.234Z,29.10
2017-09-27T11:28:57.827Z,29.00
2017-09-27T11:31:25.441Z,28.50
2017-09-27T11:33:53.789Z,28.70
2017-09-27T11:36:21.373Z,28.80
2017-09-27T11:38:48.990Z,29.30
2017-09-27T11:41:17.338Z,30.00
2017-09-27T11:43:44.922Z,30.00
2017-09-27T11:46:12.550Z,28.70
2017-09-27T11:48:40.905Z,29.10
2017-09-27T11:51:08.490Z,29.10
2017-09-27T11:53:36.112Z,29.70
2017-09-27T11:56:03.690Z,30.60
2017-09-27T11:58:31.274Z,28.80
2017-09-27T12:00:58.885Z,30.90
2017-09-27T12:03:26.477Z,27.70
2017-09-27T12:05:54.832Z,28.50
2017-09-27T12:08:22.453Z,28.50
2017-09-27T12:10:50.034Z,30.30
2017-09-27T12:13:17.622Z,29.70
2017-09-27T12:15:45.239Z,28.30
2017-09-27T12:18:13.594Z,28.70
2017-09-27T12:20:41.958Z,27.60
2017-09-27T12:23:10.342Z,28.20
2017-09-27T12:25:37.926Z,28.20
2017-09-27T12:28:05.516Z,28.80
2017-09-27T12:30:33.138Z,28.80
2017-09-27T12:33:00.721Z,28.70
2017-09-27T12:35:28.316Z,28.90
2017-09-27T12:37:55.938Z,28.80
2017-09-27T12:40:23.527Z,28.10
2017-09-27T12:42:51.121Z,27.50
2017-09-27T12:45:18.742Z,27.30
2017-09-27T12:47:47.094Z,27.80
2017-09-27T12:50:15.448Z,27.40
2017-09-27T12:52:43.062Z,27.40
2017-09-27T12:55:10.650Z,26.50
2017-09-27T12:57:39.002Z,26.60
2017-09-27T13:00:07.385Z,27.10
2017-09-27T13:02:34.969Z,27.00
2017-09-27T13:05:02.549Z,26.90
2017-09-27T13:07:30.173Z,27.20
2017-09-27T13:09:57.766Z,27.60
2017-09-27T13:12:25.353Z,27.00
2017-09-27T13:14:52.974Z,27.70
2017-09-27T13:17:20.553Z,27.90
2017-09-27T13:19:48.147Z,28.30
2017-09-27T13:22:16.535Z,27.80
2017-09-27T13:24:44.126Z,27.80
2017-09-27T13:27:11.718Z,26.00
2017-09-27T13:29:39.338Z,24.20
2017-09-27T13:32:07.695Z,19.10
2017-09-27T13:34:36.049Z,17.90
2017-09-27T13:37:03.686Z,17.80
2017-09-27T13:39:31.282Z,18.80
2017-09-27T13:41:58.861Z,19.20
2017-09-27T13:44:26.483Z,17.20
2017-09-27T13:46:54.058Z,17.60
2017-09-27T13:49:21.641Z,17.10
2017-09-27T13:51:50.026Z,19.00
2017-09-27T13:54:17.622Z,18.90
2017-09-27T13:56:45.202Z,20.90
2017-09-27T13:59:13.581Z,20.00
2017-09-27T14:01:41.174Z,20.00
2017-09-27T14:04:08.770Z,22.70
2017-09-27T14:06:36.389Z,25.30
2017-09-27T14:09:03.977Z,24.10
2017-09-27T14:11:31.571Z,28.80
2017-09-27T14:13:59.459Z,33.70
2017-09-27T14:16:27.050Z,36.90
2017-09-27T14:18:54.637Z,38.50
2017-09-27T14:21:22.257Z,40.40
2017-09-27T14:23:49.849Z,42.00
2017-09-27T14:26:17.448Z,44.80
2017-09-27T14:28:45.079Z,46.30
2017-09-27T14:31:12.675Z,43.50
2017-09-27T14:33:40.265Z,46.10
2017-09-27T14:36:07.891Z,49.50
2017-09-27T14:38:35.485Z,52.30
2017-09-27T14:41:03.840Z,54.00
2017-09-27T14:43:31.462Z,54.00
2017-09-27T14:45:59.053Z,54.30
2017-09-27T14:48:27.407Z,53.40
2017-09-27T14:50:55.902Z,53.60
2017-09-27T14:53:23.549Z,53.40
2017-09-27T14:55:51.146Z,55.20
2017-09-27T14:58:19.546Z,55.40
2017-09-27T15:00:47.155Z,55.20
2017-09-27T15:03:14.747Z,56.50
2017-09-27T15:05:42.368Z,56.70
2017-09-27T15:08:10.722Z,60.00
2017-09-27T15:10:39.085Z,60.50
2017-09-27T15:13:07.483Z,60.30
2017-09-27T15:15:35.070Z,60.20
2017-09-27T15:18:03.834Z,59.40
2017-09-27T15:20:31.464Z,58.80
2017-09-27T15:22:59.052Z,59.30
2017-09-27T15:25:26.642Z,59.40
2017-09-27T15:27:54.266Z,59.00
2017-09-27T15:30:21.862Z,59.10
2017-09-27T15:32:49.478Z,60.10
2017-09-27T15:35:17.098Z,60.90
2017-09-27T15:37:44.690Z,62.70
2017-09-27T15:40:12.284Z,63.00
2017-09-27T15:42:40.678Z,64.50
2017-09-27T15:45:08.271Z,64.40
2017-09-27T15:47:35.856Z,64.90
2017-09-27T15:50:03.482Z,64.70
2017-09-27T15:52:31.847Z,50.40
2017-09-27T15:55:00.206Z,48.70
2017-09-27T15:57:28.591Z,47.40
2017-09-27T15:59:56.205Z,47.20
2017-09-27T16:02:23.794Z,43.90
2017-09-27T16:04:51.413Z,43.00
2017-09-27T16:07:19.770Z,41.90
2017-09-27T16:09:48.138Z,41.50
2017-09-27T16:12:15.758Z,42.10
2017-09-27T16:14:43.355Z,45.70
2017-09-27T16:17:10.946Z,56.50
2017-09-27T16:19:38.578Z,60.30
2017-09-27T16:22:06.178Z,63.30
2017-09-27T16:24:34.554Z,67.10
2017-09-27T16:27:02.179Z,67.00
2017-09-27T16:29:29.774Z,68.00
2017-09-27T16:31:57.373Z,70.40
2017-09-27T16:34:25.766Z,72.50
2017-09-27T16:36:53.372Z,72.50
2017-09-27T16:39:21.733Z,73.90
2017-09-27T16:41:49.383Z,73.70
2017-09-27T16:44:17.754Z,75.00
2017-09-27T16:46:46.119Z,75.80
2017-09-27T16:49:13.774Z,75.80
2017-09-27T16:51:42.502Z,76.70
2017-09-27T16:54:10.889Z,77.30
2017-09-27T16:56:40.002Z,77.20
2017-09-27T16:59:07.629Z,77.40
2017-09-27T17:01:35.246Z,77.30
2017-09-27T17:04:03.670Z,77.60
2017-09-27T17:06:31.279Z,77.60
2017-09-27T17:08:58.902Z,78.30
2017-09-27T17:11:27.321Z,77.80
2017-09-27T17:13:54.922Z,77.80
2017-09-27T17:16:22.547Z,78.00
2017-09-27T17:18:50.966Z,78.10
2017-09-27T17:21:18.589Z,78.10
2017-09-27T17:23:46.283Z,78.90
2017-09-27T17:26:13.945Z,79.30
2017-09-27T17:28:41.573Z,79.70
2017-09-27T17:31:09.197Z,79.80
2017-09-27T17:33:36.863Z,79.30
2017-09-27T17:36:04.483Z,79.60
2017-09-27T17:38:32.106Z,79.70
2017-09-27T17:40:59.761Z,79.40
2017-09-27T17:43:27.386Z,79.30
2017-09-27T17:45:57.216Z,79.80
2017-09-27T17:48:24.893Z,79.80
2017-09-27T17:50:52.518Z,80.00
2017-09-27T17:53:20.160Z,80.50
2017-09-27T17:55:48.486Z,81.20
2017-09-27T17:58:16.872Z,82.30
2017-09-27T18:00:44.494Z,82.20
2017-09-27T18:03:12.929Z,82.10
2017-09-27T18:08:46.306Z,81.90
2017-09-27T18:11:19.611Z,82.30
2017-09-27T18:13:53.689Z,82.20
2017-09-27T18:16:26.880Z,82.20
2017-09-27T18:18:54.539Z,82.90
2017-09-27T18:21:22.926Z,82.00
2017-09-27T18:23:50.549Z,81.90
2017-09-27T18:26:18.974Z,81.90
2017-09-27T18:28:46.599Z,81.90
2017-09-27T18:31:14.230Z,82.60
2017-09-27T18:33:41.891Z,82.20
2017-09-27T18:36:09.527Z,83.00
2017-09-27T18:38:37.156Z,84.10
2017-09-27T18:41:04.808Z,84.50
2017-09-27T18:43:32.441Z,84.80
2017-09-27T18:46:00.877Z,85.40
2017-09-27T18:48:29.322Z,85.90
2017-09-27T18:50:56.953Z,85.60
2017-09-27T18:53:24.578Z,86.00
2017-09-27T18:55:52.237Z,86.50
2017-09-27T18:58:20.513Z,87.10
2017-09-27T19:00:48.154Z,87.30
2017-09-27T19:03:15.818Z,87.60
2017-09-27T19:05:43.449Z,87.30
2017-09-27T19:08:11.080Z,87.30
2017-09-27T19:10:38.737Z,88.30
2017-09-27T19:13:06.361Z,89.10
2017-09-27T19:15:34.070Z,89.00
2017-09-27T19:18:01.727Z,89.10
2017-09-27T19:20:29.346Z,89.00
2017-09-27T19:22:56.964Z,88.50
2017-09-27T19:25:24.610Z,88.90
2017-09-27T19:27:52.230Z,89.00
2017-09-27T19:30:20.625Z,90.20
2017-09-27T19:32:48.287Z,90.10
2017-09-27T19:35:15.934Z,90.00
2017-09-27T19:37:43.554Z,89.90
2017-09-27T19:40:11.215Z,90.00
2017-09-27T19:42:38.847Z,89.60
2017-09-27T19:45:06.473Z,89.40
2017-09-27T19:47:34.894Z,89.30
2017-09-27T19:50:02.515Z,89.30
2017-09-27T19:52:30.139Z,89.00
2017-09-27T19:54:58.749Z,89.60
2017-09-27T19:57:26.378Z,89.50
2017-09-27T19:59:54.004Z,88.90
2017-09-27T20:02:21.666Z,89.30
2017-09-27T20:04:49.310Z,89.00
2017-09-27T20:07:16.922Z,89.00
2017-09-27T20:09:45.342Z,89.40
2017-09-27T20:12:12.962Z,88.60
2017-09-27T20:14:40.588Z,88.90
2017-09-27T20:17:09.079Z,88.80
2017-09-27T20:19:36.750Z,88.70
2017-09-27T20:22:04.371Z,88.70
2017-09-27T20:24:32.820Z,88.60
2017-09-27T20:27:01.004Z,88.30
2017-09-27T20:29:28.790Z,87.70
2017-09-27T20:31:56.453Z,87.70
2017-09-27T20:34:24.083Z,87.60
2017-09-27T20:36:51.710Z,87.70
2017-09-27T20:39:19.370Z,87.20
2017-09-27T20:41:47.004Z,87.40
2017-09-27T20:44:14.635Z,87.90
2017-09-27T20:46:42.297Z,88.00
2017-09-27T20:49:09.931Z,88.00
2017-09-27T20:51:37.617Z,88.00
2017-09-27T20:54:05.282Z,88.90
2017-09-27T20:56:32.915Z,89.00
2017-09-27T20:59:00.587Z,88.90
2017-09-27T21:01:28.237Z,88.80
2017-09-27T21:03:55.860Z,88.50
2017-09-27T21:06:23.482Z,89.20
2017-09-27T21:08:51.143Z,89.20
2017-09-27T21:11:18.770Z,89.80
2017-09-27T21:13:46.398Z,90.60
2017-09-27T21:16:14.058Z,90.40
2017-09-27T21:18:41.681Z,90.30
2017-09-27T21:21:09.313Z,90.60
2017-09-27T21:23:36.979Z,90.30
2017-09-27T21:26:04.612Z,89.30
2017-09-27T21:28:32.234Z,88.50
2017-09-27T21:31:00.650Z,88.70
2017-09-27T21:33:28.271Z,88.70
2017-09-27T21:35:55.898Z,89.50
2017-09-27T21:38:24.314Z,86.90
2017-09-27T21:40:51.947Z,86.80
2017-09-27T21:43:19.569Z,87.20
2017-09-27T21:45:47.226Z,87.90
2017-09-27T21:48:14.843Z,89.00
2017-09-27T21:50:42.466Z,89.50
2017-09-27T21:53:10.126Z,89.80
2017-09-27T21:55:37.738Z,90.90
2017-09-27T21:58:05.363Z,91.20
2017-09-27T22:00:33.025Z,91.90
2017-09-27T22:03:00.654Z,92.60
2017-09-27T22:05:28.279Z,93.10
2017-09-27T22:07:55.934Z,93.30
2017-09-27T22:10:23.567Z,93.20
2017-09-27T22:12:51.194Z,93.40
2017-09-27T22:58:59.254Z,94.50
2017-09-27T23:01:26.874Z,99.80
2017-09-27T23:03:55.290Z,99.10
2017-09-27T23:06:22.906Z,99.00
2017-09-27T23:08:50.535Z,98.80
2017-09-27T23:11:18.190Z,98.30
2017-09-27T23:13:45.821Z,97.70
2017-09-27T23:16:14.250Z,97.20
2017-09-27T23:18:41.862Z,97.20
2017-09-27T23:21:09.486Z,97.70
2017-09-27T23:23:37.903Z,98.20
2017-09-27T23:26:05.528Z,98.20
2017-09-27T23:28:33.191Z,98.60
2017-09-27T23:31:00.813Z,98.30
2017-09-27T23:33:28.436Z,97.70
2017-09-27T23:35:56.073Z,97.60
2017-09-27T23:38:24.457Z,97.40
2017-09-27T23:40:52.109Z,97.40
2017-09-27T23:43:19.725Z,98.20
2017-09-27T23:45:48.119Z,98.40
2017-09-27T23:48:15.768Z,98.40
2017-09-27T23:50:43.454Z,98.70
2017-09-27T23:53:11.106Z,98.90
2017-09-27T23:55:38.730Z,99.00
2017-09-27T23:58:06.354Z,98.00
